Clough, South Dakota
Current Conditions -  °F | °C
As of 8:58 AM on Wednesday 22 Oct 2014 (Local Time) from KRCA Reporting Station
Overcast Overcast  
Wind Chill: 53°   Ceiling: 12000
Heat Index: 53°   Visibility: 10mi
Dew Point: 36°   Wind: 15mph
Humidity: 51%   Direction: 330°NNW
Pressure: 29.99"   Gusts: 23mph
Location:  44.4145°N, 103.17°W
Report Text: KRCA 221458Z AUTO 33013G20KT 10SM SCT065 OVC120 12/02 A2999 RMK AO2 SLP150 T01190020 52024 $
Loading
Personal Weather Stations






























Interactive Weather Map
Tropical Storm Tracking
New forecast layout! Learn more

10-Day Weather Forecast

Advertisements
Track Severe Weather on mobile